Time;durP1;ratioP1;P1;durP2;ratioP2;P2;SDS_P1;SDS_P2;PMS_P1;PMS_P2;Temp;Humidity;BMP_temperature;BMP_pressure;BME280_temperature;BME280_humidity;BME280_pressure;Samples;Min_cycle;Max_cycle;Signal;HPM_P1;HPM_P2
2022/01/25 00:28:25;;;;;;;;;;;5.10;99.90;;;;;;5124931;27;19999;-71
2022/01/25 00:33:22;;;;;;;;;;;5.00;99.90;;;;;;5126632;27;19912;-73
2022/01/25 00:35:48;;;;;;;;;;;4.90;99.90;;;;;;5125983;28;20401;-73
2022/01/25 00:38:14;;;;;;;;;;;4.90;99.90;;;;;;5124626;28;19918;-71
2022/01/25 00:40:39;;;;;;;;;;;4.80;99.90;;;;;;5123948;28;20007;-72
2022/01/25 00:43:05;;;;;;;;;;;4.90;99.90;;;;;;5118246;27;19915;-73
2022/01/25 00:45:30;;;;;;;;;;;4.80;99.90;;;;;;5121989;28;19923;-72
2022/01/25 00:47:56;;;;;;;;;;;4.80;99.90;;;;;;5117175;28;19915;-72
2022/01/25 00:50:23;;;;;;;;;;;4.90;99.90;;;;;;5122903;27;20487;-71
2022/01/25 00:55:14;;;;;;;;;;;4.90;99.90;;;;;;5126183;27;19919;-73
2022/01/25 00:57:40;;;;;;;;;;;4.80;99.90;;;;;;5118928;27;20261;-73
2022/01/25 01:00:07;;;;;;;;;;;4.70;99.90;;;;;;5122211;27;19908;-73
2022/01/25 01:02:33;;;;;;;;;;;4.60;99.90;;;;;;5122864;28;19951;-72
2022/01/25 01:04:58;;;;;;;;;;;4.60;99.90;;;;;;5128086;28;19939;-72
2022/01/25 01:07:25;;;;;;;;;;;4.60;99.90;;;;;;5118375;28;19918;-75
2022/01/25 01:09:52;;;;;;;;;;;4.70;99.90;;;;;;5126132;28;20385;-73
2022/01/25 01:34:07;;;;;;;;;;;4.60;99.90;;;;;;5130244;27;19916;-73
2022/01/25 01:42:18;;;;;;;;;;;4.40;99.90;;;;;;5119092;27;19957;-73
2022/01/25 01:47:37;;;;;;;;;;;4.40;99.90;;;;;;5119060;27;19912;-72
2022/01/25 01:50:09;;;;;;;;;;;4.40;99.90;;;;;;5130676;27;19919;-73
2022/01/25 01:52:34;;;;;;;;;;;4.40;99.90;;;;;;5131367;27;19911;-74
2022/01/25 01:55:00;;;;;;;;;;;4.40;99.90;;;;;;5127231;27;20396;-73
2022/01/25 01:57:25;;;;;;;;;;;4.40;99.90;;;;;;5128896;27;19911;-72
2022/01/25 01:59:52;;;;;;;;;;;4.40;99.90;;;;;;5125747;27;19990;-72
2022/01/25 02:02:18;;;;;;;;;;;4.40;99.90;;;;;;5126549;27;19920;-72
2022/01/25 02:04:43;;;;;;;;;;;4.30;99.90;;;;;;5130825;27;20307;-73
2022/01/25 02:07:09;;;;;;;;;;;4.40;99.90;;;;;;5125165;27;19918;-73
2022/01/25 02:09:35;;;;;;;;;;;4.40;99.90;;;;;;5129026;27;19911;-74
2022/01/25 02:12:00;;;;;;;;;;;4.50;99.90;;;;;;5123633;27;20366;-73
2022/01/25 02:14:28;;;;;;;;;;;4.50;99.90;;;;;;5125070;27;20037;-72
2022/01/25 02:24:47;;;;;;;;;;;4.30;99.90;;;;;;5125456;27;20025;-73
2022/01/25 02:27:13;;;;;;;;;;;4.30;99.90;;;;;;5128520;27;19947;-72
2022/01/25 02:29:39;;;;;;;;;;;4.30;99.90;;;;;;5127112;27;19919;-72
2022/01/25 02:32:05;;;;;;;;;;;4.40;99.90;;;;;;5128306;27;19919;-73
2022/01/25 02:34:31;;;;;;;;;;;4.40;99.90;;;;;;5118920;27;20305;-71
2022/01/25 02:36:57;;;;;;;;;;;4.40;99.90;;;;;;5125036;27;19959;-73
2022/01/25 02:39:23;;;;;;;;;;;4.40;99.90;;;;;;5127834;27;19980;-71
2022/01/25 02:41:50;;;;;;;;;;;4.30;99.90;;;;;;5130457;27;20360;-71
2022/01/25 02:44:23;;;;;;;;;;;4.40;99.90;;;;;;5122168;27;19916;-73
2022/01/25 02:49:18;;;;;;;;;;;4.40;99.90;;;;;;5116186;27;19992;-74
2022/01/25 02:51:44;;;;;;;;;;;4.40;99.90;;;;;;5121587;27;19916;-75
2022/01/25 02:54:12;;;;;;;;;;;4.40;99.90;;;;;;5124897;27;19911;-74
2022/01/25 02:56:38;;;;;;;;;;;4.30;99.90;;;;;;5123815;27;20353;-71
2022/01/25 02:59:05;;;;;;;;;;;4.40;99.90;;;;;;5123670;27;19911;-72
2022/01/25 03:01:31;;;;;;;;;;;4.50;99.90;;;;;;5117884;27;20006;-75
2022/01/25 03:03:57;;;;;;;;;;;4.40;99.90;;;;;;5127340;27;20002;-73
2022/01/25 03:06:23;;;;;;;;;;;4.40;99.90;;;;;;5116851;27;19916;-74
2022/01/25 03:08:49;;;;;;;;;;;4.30;99.90;;;;;;5120154;27;20357;-72
2022/01/25 03:11:17;;;;;;;;;;;4.40;99.90;;;;;;5125462;27;20301;-72
2022/01/25 03:13:52;;;;;;;;;;;4.40;99.90;;;;;;5121042;27;19915;-73
2022/01/25 03:16:35;;;;;;;;;;;4.40;99.90;;;;;;5116347;27;19927;-72
2022/01/25 03:19:04;;;;;;;;;;;4.50;99.90;;;;;;5116060;27;19916;-72
2022/01/25 03:23:56;;;;;;;;;;;4.50;99.90;;;;;;5117297;27;20023;-73
2022/01/25 03:26:23;;;;;;;;;;;4.40;99.90;;;;;;5113710;27;19918;-70
2022/01/25 03:28:49;;;;;;;;;;;4.40;99.90;;;;;;5119678;27;19916;-73
2022/01/25 03:31:18;;;;;;;;;;;4.50;99.90;;;;;;5118713;27;20369;-74
2022/01/25 03:33:43;;;;;;;;;;;4.40;99.90;;;;;;5120683;27;19917;-74
2022/01/25 03:36:09;;;;;;;;;;;4.30;99.90;;;;;;5123605;27;20402;-72
2022/01/25 03:38:36;;;;;;;;;;;4.30;99.90;;;;;;5118639;27;19939;-72
2022/01/25 03:41:03;;;;;;;;;;;4.30;99.90;;;;;;5120448;27;19918;-72
2022/01/25 03:43:29;;;;;;;;;;;4.30;99.90;;;;;;5115147;27;20367;-72
2022/01/25 03:46:11;;;;;;;;;;;4.20;99.90;;;;;;5119422;27;19918;-73
2022/01/25 03:51:21;;;;;;;;;;;4.10;99.90;;;;;;5120643;27;20388;-74
2022/01/25 03:53:51;;;;;;;;;;;4.10;99.90;;;;;;5124374;27;19916;-73
2022/01/25 03:56:17;;;;;;;;;;;4.10;99.90;;;;;;5120306;27;19966;-74
2022/01/25 03:58:42;;;;;;;;;;;4.10;99.90;;;;;;5125694;27;20350;-74
2022/01/25 04:01:11;;;;;;;;;;;4.10;99.90;;;;;;5122824;27;19911;-72
2022/01/25 04:03:43;;;;;;;;;;;4.00;99.90;;;;;;5113352;27;19996;-72
2022/01/25 04:06:10;;;;;;;;;;;3.90;99.90;;;;;;5126084;27;19916;-74
2022/01/25 04:08:37;;;;;;;;;;;3.80;99.90;;;;;;5121589;27;19924;-72
2022/01/25 04:11:03;;;;;;;;;;;3.70;99.90;;;;;;5128888;27;20467;-72
2022/01/25 04:13:28;;;;;;;;;;;3.60;99.90;;;;;;5125856;27;19957;-72
2022/01/25 04:15:57;;;;;;;;;;;3.50;99.90;;;;;;5128161;27;19982;-73
2022/01/25 04:18:32;;;;;;;;;;;3.40;99.90;;;;;;5125689;27;19916;-74
2022/01/25 04:21:11;;;;;;;;;;;3.50;99.90;;;;;;5129109;27;19959;-73
2022/01/25 04:26:21;;;;;;;;;;;3.40;99.90;;;;;;5124965;28;19937;-72
2022/01/25 04:28:46;;;;;;;;;;;3.20;99.90;;;;;;5127954;27;20341;-74
2022/01/25 04:31:15;;;;;;;;;;;3.10;99.90;;;;;;5121403;27;19911;-72
2022/01/25 04:33:54;;;;;;;;;;;3.10;99.90;;;;;;5120702;28;20098;-73
2022/01/25 04:50:00;;;;;;;;;;;3.00;99.90;;;;;;5121702;28;20011;-73
2022/01/25 04:52:31;;;;;;;;;;;3.00;99.90;;;;;;5123972;28;19965;-73
2022/01/25 05:00:19;;;;;;;;;;;3.10;99.90;;;;;;5126866;27;19919;-74
2022/01/25 05:02:53;;;;;;;;;;;3.20;99.90;;;;;;5125436;27;19915;-73
2022/01/25 05:05:33;;;;;;;;;;;3.30;99.90;;;;;;5132878;27;19975;-73
2022/01/25 05:08:15;;;;;;;;;;;3.30;99.90;;;;;;5125369;27;20136;-72
2022/01/25 05:10:50;;;;;;;;;;;3.30;99.90;;;;;;5131096;27;19915;-73
2022/01/25 05:13:36;;;;;;;;;;;3.30;99.90;;;;;;5127084;27;19934;-72
2022/01/25 05:16:06;;;;;;;;;;;3.20;99.90;;;;;;5121036;27;19927;-73
2022/01/25 05:18:44;;;;;;;;;;;3.20;99.90;;;;;;5120795;27;19922;-72
2022/01/25 05:23:55;;;;;;;;;;;3.10;99.90;;;;;;5129816;27;20017;-72
2022/01/25 05:26:22;;;;;;;;;;;3.10;99.90;;;;;;5128315;27;19932;-73
2022/01/25 05:28:47;;;;;;;;;;;3.10;99.90;;;;;;5128957;27;19922;-73
2022/01/25 05:31:13;;;;;;;;;;;3.20;99.90;;;;;;5131519;27;20399;-72
2022/01/25 05:33:38;;;;;;;;;;;3.10;99.90;;;;;;5128092;27;19918;-72
2022/01/25 05:36:04;;;;;;;;;;;3.00;99.90;;;;;;5131509;27;19916;-71
2022/01/25 05:38:30;;;;;;;;;;;3.00;99.90;;;;;;5131473;27;20396;-72
2022/01/25 05:40:59;;;;;;;;;;;2.90;99.90;;;;;;5129213;27;20315;-73
2022/01/25 05:46:15;;;;;;;;;;;3.00;99.90;;;;;;5127659;27;19986;-74
2022/01/25 05:48:41;;;;;;;;;;;3.00;99.90;;;;;;5115328;27;21658;-73
2022/01/25 05:51:07;;;;;;;;;;;2.90;99.90;;;;;;5126498;27;19918;-73
2022/01/25 05:53:33;;;;;;;;;;;2.90;99.90;;;;;;5128267;27;20302;-73
2022/01/25 05:55:58;;;;;;;;;;;2.80;99.90;;;;;;5130560;27;19915;-74
2022/01/25 05:58:24;;;;;;;;;;;2.80;99.90;;;;;;5120906;27;19964;-74
2022/01/25 06:00:50;;;;;;;;;;;2.80;99.90;;;;;;5132683;27;19911;-73
2022/01/25 06:03:15;;;;;;;;;;;2.70;99.90;;;;;;5132341;27;19912;-73
2022/01/25 06:05:41;;;;;;;;;;;2.70;99.90;;;;;;5132852;27;20376;-72
2022/01/25 06:08:07;;;;;;;;;;;2.70;99.90;;;;;;5123617;27;19911;-71
2022/01/25 06:10:34;;;;;;;;;;;2.60;99.90;;;;;;5126718;27;20160;-72
2022/01/25 06:13:00;;;;;;;;;;;2.60;99.90;;;;;;5127867;27;19912;-72
2022/01/25 06:15:26;;;;;;;;;;;2.50;99.90;;;;;;5124117;27;19917;-72
2022/01/25 06:17:52;;;;;;;;;;;2.40;99.90;;;;;;5128414;27;19918;-74
2022/01/25 06:20:17;;;;;;;;;;;2.40;99.90;;;;;;5133153;27;19911;-70
2022/01/25 06:22:43;;;;;;;;;;;2.40;99.90;;;;;;5124337;27;19912;-71
2022/01/25 06:25:10;;;;;;;;;;;2.40;99.90;;;;;;5125061;27;20298;-72
2022/01/25 06:27:40;;;;;;;;;;;2.40;99.90;;;;;;5132675;27;19966;-72
2022/01/25 06:30:07;;;;;;;;;;;2.40;99.90;;;;;;5131511;27;19907;-72
2022/01/25 06:32:33;;;;;;;;;;;2.40;99.90;;;;;;5127485;27;19915;-72
2022/01/25 06:34:58;;;;;;;;;;;2.30;99.90;;;;;;5120718;27;20246;-71
2022/01/25 06:37:24;;;;;;;;;;;2.30;99.90;;;;;;5120161;27;19911;-72
2022/01/25 06:39:50;;;;;;;;;;;2.30;99.90;;;;;;5132685;27;19907;-71
2022/01/25 06:42:15;;;;;;;;;;;2.30;99.90;;;;;;5118745;27;19911;-73
2022/01/25 06:44:41;;;;;;;;;;;2.30;99.90;;;;;;5120311;27;20522;-72
2022/01/25 06:47:07;;;;;;;;;;;2.30;99.90;;;;;;5123748;27;19915;-71
2022/01/25 06:49:32;;;;;;;;;;;2.30;99.90;;;;;;5131209;27;20635;-73
2022/01/25 06:51:59;;;;;;;;;;;2.30;99.90;;;;;;5126639;27;19912;-74
2022/01/25 06:54:25;;;;;;;;;;;2.40;99.90;;;;;;5133068;27;19912;-72
2022/01/25 06:56:50;;;;;;;;;;;2.50;99.90;;;;;;5121063;27;19916;-73
2022/01/25 06:59:17;;;;;;;;;;;2.50;99.90;;;;;;5122181;27;19919;-75
2022/01/25 07:01:43;;;;;;;;;;;2.50;99.90;;;;;;5124013;27;19911;-72
2022/01/25 07:04:09;;;;;;;;;;;2.80;99.90;;;;;;5130228;27;20022;-72
2022/01/25 07:06:43;;;;;;;;;;;2.90;99.90;;;;;;5117692;27;19908;-74
2022/01/25 07:09:12;;;;;;;;;;;2.90;99.90;;;;;;5118347;27;19966;-73
2022/01/25 07:11:37;;;;;;;;;;;3.10;99.90;;;;;;5131496;27;19907;-73
2022/01/25 07:14:03;;;;;;;;;;;3.10;99.90;;;;;;5131147;27;20315;-72
2022/01/25 07:16:32;;;;;;;;;;;3.10;99.90;;;;;;5131408;27;19926;-75
2022/01/25 07:18:58;;;;;;;;;;;3.20;99.90;;;;;;5131725;27;19946;-71
2022/01/25 07:21:24;;;;;;;;;;;3.40;99.90;;;;;;5120293;27;19919;-73
2022/01/25 07:23:49;;;;;;;;;;;3.20;99.90;;;;;;5120768;27;19935;-69
2022/01/25 07:26:15;;;;;;;;;;;3.20;99.90;;;;;;5131024;27;19951;-69
2022/01/25 07:28:40;;;;;;;;;;;3.20;99.90;;;;;;5118265;27;19927;-67
2022/01/25 07:31:06;;;;;;;;;;;3.20;99.90;;;;;;5125344;27;19943;-69
2022/01/25 07:33:32;;;;;;;;;;;3.20;99.90;;;;;;5127654;27;20424;-69
2022/01/25 07:35:58;;;;;;;;;;;3.20;99.90;;;;;;5127680;27;19915;-69
2022/01/25 07:38:23;;;;;;;;;;;3.20;99.90;;;;;;5115146;27;19911;-75
2022/01/25 07:40:49;;;;;;;;;;;3.30;99.90;;;;;;5115082;27;19924;-67
2022/01/25 07:43:15;;;;;;;;;;;3.20;99.90;;;;;;5114376;27;20254;-69
2022/01/25 07:45:42;;;;;;;;;;;3.30;99.90;;;;;;5110096;27;19915;-70
2022/01/25 07:48:08;;;;;;;;;;;3.60;99.90;;;;;;5120463;27;19927;-69
2022/01/25 07:50:34;;;;;;;;;;;3.80;99.90;;;;;;5107846;27;22045;-69
2022/01/25 07:53:00;;;;;;;;;;;3.90;99.90;;;;;;5118418;27;19922;-69
2022/01/25 07:55:25;;;;;;;;;;;4.10;99.90;;;;;;5117661;27;19920;-68
2022/01/25 07:57:52;;;;;;;;;;;4.20;99.90;;;;;;5123280;27;19968;-70
2022/01/25 08:00:18;;;;;;;;;;;4.40;99.90;;;;;;5118903;27;19916;-70
2022/01/25 08:02:44;;;;;;;;;;;4.30;99.90;;;;;;5125604;27;20019;-70
2022/01/25 08:05:12;;;;;;;;;;;4.10;99.90;;;;;;5120293;27;19963;-69
2022/01/25 08:07:38;;;;;;;;;;;4.10;99.90;;;;;;5121941;27;19934;-68
2022/01/25 08:10:03;;;;;;;;;;;4.20;99.90;;;;;;5124031;27;20321;-73
2022/01/25 08:12:29;;;;;;;;;;;4.20;99.90;;;;;;5124703;27;20011;-70
2022/01/25 08:14:58;;;;;;;;;;;4.20;99.90;;;;;;5118965;27;20044;-71
2022/01/25 08:17:23;;;;;;;;;;;4.10;99.90;;;;;;5126363;27;20006;-70
2022/01/25 08:19:49;;;;;;;;;;;4.20;99.90;;;;;;5127379;27;19995;-68
2022/01/25 08:22:14;;;;;;;;;;;4.30;99.90;;;;;;5121190;27;20401;-70
2022/01/25 08:24:40;;;;;;;;;;;4.30;99.90;;;;;;5124191;27;19915;-71
2022/01/25 08:27:06;;;;;;;;;;;4.30;99.90;;;;;;5127990;28;19911;-68
2022/01/25 08:29:31;;;;;;;;;;;4.30;99.90;;;;;;5123823;27;19959;-68
2022/01/25 08:31:57;;;;;;;;;;;4.50;99.90;;;;;;5124270;27;19924;-68
2022/01/25 08:34:23;;;;;;;;;;;4.60;99.90;;;;;;5122575;27;19916;-68
2022/01/25 08:36:48;;;;;;;;;;;4.70;99.90;;;;;;5127200;28;19911;-70
2022/01/25 08:39:14;;;;;;;;;;;4.80;99.90;;;;;;5123727;27;19938;-67
2022/01/25 08:41:39;;;;;;;;;;;4.90;99.90;;;;;;5125598;28;20301;-66
2022/01/25 08:44:05;;;;;;;;;;;5.00;99.90;;;;;;5120389;27;19911;-66
2022/01/25 08:46:31;;;;;;;;;;;5.10;99.90;;;;;;5125080;28;20111;-67
2022/01/25 08:48:57;;;;;;;;;;;5.20;99.90;;;;;;5129729;28;19963;-68
2022/01/25 08:51:23;;;;;;;;;;;5.20;99.90;;;;;;5126001;27;19912;-67
2022/01/25 08:53:48;;;;;;;;;;;5.30;99.90;;;;;;5124033;28;19917;-70
2022/01/25 08:56:14;;;;;;;;;;;5.30;99.90;;;;;;5122883;27;20360;-70
2022/01/25 08:58:40;;;;;;;;;;;5.40;99.90;;;;;;5125593;28;19920;-68
2022/01/25 09:01:06;;;;;;;;;;;5.60;99.90;;;;;;5123991;27;20311;-69
2022/01/25 09:03:31;;;;;;;;;;;5.60;99.90;;;;;;5126089;28;19915;-68
2022/01/25 09:05:57;;;;;;;;;;;5.60;99.90;;;;;;5125936;28;19998;-71
2022/01/25 09:08:25;;;;;;;;;;;5.60;99.90;;;;;;5127664;27;19911;-69
2022/01/25 09:10:53;;;;;;;;;;;5.70;99.90;;;;;;5121948;27;19915;-68
2022/01/25 09:13:19;;;;;;;;;;;5.70;99.90;;;;;;5129881;27;20372;-69
2022/01/25 09:15:44;;;;;;;;;;;5.80;99.90;;;;;;5115892;27;19926;-70
2022/01/25 09:18:10;;;;;;;;;;;6.00;99.90;;;;;;5123781;28;19918;-70
2022/01/25 09:20:36;;;;;;;;;;;6.10;99.90;;;;;;5123524;27;19912;-68
2022/01/25 09:23:01;;;;;;;;;;;6.20;99.90;;;;;;5126320;28;19919;-69
2022/01/25 09:25:27;;;;;;;;;;;6.20;99.90;;;;;;5128364;27;19915;-71
2022/01/25 09:27:53;;;;;;;;;;;6.40;99.90;;;;;;5126825;27;19965;-69
2022/01/25 09:30:19;;;;;;;;;;;6.50;99.90;;;;;;5124434;28;19916;-69
2022/01/25 09:32:46;;;;;;;;;;;6.50;99.90;;;;;;5125904;27;20004;-69
2022/01/25 09:35:11;;;;;;;;;;;6.70;99.90;;;;;;5123135;28;19960;-68
2022/01/25 09:37:37;;;;;;;;;;;6.80;99.90;;;;;;5129760;27;20003;-69
2022/01/25 09:40:03;;;;;;;;;;;6.90;99.90;;;;;;5126645;27;20006;-70
2022/01/25 09:42:30;;;;;;;;;;;7.00;99.90;;;;;;5126634;27;19962;-68
2022/01/25 09:44:57;;;;;;;;;;;7.10;99.90;;;;;;5132609;27;19919;-69
2022/01/25 09:47:23;;;;;;;;;;;7.10;99.90;;;;;;5132681;27;20371;-70
2022/01/25 09:49:49;;;;;;;;;;;7.30;99.90;;;;;;5132647;27;19938;-68
2022/01/25 09:52:15;;;;;;;;;;;7.20;99.90;;;;;;5132794;27;19913;-69
2022/01/25 09:54:41;;;;;;;;;;;7.20;99.90;;;;;;5126814;27;20401;-69
2022/01/25 09:57:07;;;;;;;;;;;7.40;99.90;;;;;;5131250;27;19915;-69
2022/01/25 09:59:33;;;;;;;;;;;7.40;99.90;;;;;;5129492;27;20337;-71
2022/01/25 10:02:01;;;;;;;;;;;7.50;99.90;;;;;;5124870;27;19911;-69
2022/01/25 10:04:37;;;;;;;;;;;7.50;99.90;;;;;;5128212;27;19911;-70
2022/01/25 10:07:05;;;;;;;;;;;7.60;99.90;;;;;;5132041;27;19911;-68
2022/01/25 10:09:33;;;;;;;;;;;7.60;99.90;;;;;;5138872;27;19908;-69
2022/01/25 10:12:17;;;;;;;;;;;7.60;99.90;;;;;;5127741;27;19919;-70
2022/01/25 10:14:53;;;;;;;;;;;7.50;99.90;;;;;;5131521;27;20330;-68
2022/01/25 10:17:31;;;;;;;;;;;7.50;99.90;;;;;;5131380;27;19912;-70
2022/01/25 10:19:57;;;;;;;;;;;7.50;99.90;;;;;;5123991;27;19918;-68
2022/01/25 10:22:23;;;;;;;;;;;7.40;99.90;;;;;;5116830;27;19911;-70
2022/01/25 10:24:48;;;;;;;;;;;7.40;99.90;;;;;;5129763;27;19907;-70
2022/01/25 10:27:14;;;;;;;;;;;7.40;99.90;;;;;;5125134;27;20069;-69
2022/01/25 10:29:41;;;;;;;;;;;7.30;99.90;;;;;;5127662;27;19908;-70
2022/01/25 10:32:11;;;;;;;;;;;7.20;99.90;;;;;;5124458;27;20481;-70
2022/01/25 10:34:41;;;;;;;;;;;7.20;99.90;;;;;;5126221;27;20003;-70
2022/01/25 10:37:26;;;;;;;;;;;7.20;99.90;;;;;;5129609;27;20393;-70
2022/01/25 10:39:52;;;;;;;;;;;7.30;99.90;;;;;;5126869;27;20007;-69
2022/01/25 10:42:21;;;;;;;;;;;7.40;99.90;;;;;;5126068;27;19912;-68
2022/01/25 10:44:49;;;;;;;;;;;7.40;99.90;;;;;;5127060;27;19915;-70
2022/01/25 10:47:16;;;;;;;;;;;7.50;99.90;;;;;;5124360;27;20453;-68
2022/01/25 10:49:45;;;;;;;;;;;7.60;99.90;;;;;;5118132;27;20003;-70
2022/01/25 10:52:11;;;;;;;;;;;7.60;99.90;;;;;;5124419;27;20021;-69
2022/01/25 10:54:41;;;;;;;;;;;7.60;99.90;;;;;;5116005;27;19923;-68
2022/01/25 10:57:16;;;;;;;;;;;7.60;99.90;;;;;;5118658;27;19915;-67
2022/01/25 10:59:41;;;;;;;;;;;7.60;99.90;;;;;;5119745;27;19920;-70
2022/01/25 11:02:08;;;;;;;;;;;7.60;99.90;;;;;;5120202;27;19930;-68
2022/01/25 11:04:37;;;;;;;;;;;7.70;99.90;;;;;;5114591;27;19935;-70
2022/01/25 11:07:05;;;;;;;;;;;7.60;99.90;;;;;;5121872;27;19912;-70
2022/01/25 11:09:36;;;;;;;;;;;7.60;99.90;;;;;;5114995;27;19912;-70
2022/01/25 11:12:04;;;;;;;;;;;7.70;99.90;;;;;;5119465;27;19915;-69
2022/01/25 11:17:15;;;;;;;;;;;7.50;99.90;;;;;;5121218;27;20075;-71
2022/01/25 11:19:41;;;;;;;;;;;7.30;99.90;;;;;;5124878;27;19919;-68
2022/01/25 11:22:08;;;;;;;;;;;7.20;99.90;;;;;;5119578;27;19912;-70
2022/01/25 11:24:37;;;;;;;;;;;7.30;99.90;;;;;;5118466;27;19947;-69
2022/01/25 11:27:07;;;;;;;;;;;7.30;99.90;;;;;;5116543;27;19912;-69
2022/01/25 11:29:40;;;;;;;;;;;7.30;99.90;;;;;;5119622;27;19926;-69
2022/01/25 11:32:10;;;;;;;;;;;7.50;99.90;;;;;;5125232;27;19937;-71
2022/01/25 11:34:37;;;;;;;;;;;7.60;99.90;;;;;;5121861;27;19974;-70
2022/01/25 11:37:07;;;;;;;;;;;7.70;99.90;;;;;;5121191;27;19912;-69
2022/01/25 11:39:34;;;;;;;;;;;7.80;99.90;;;;;;5116227;27;19915;-71
2022/01/25 11:42:23;;;;;;;;;;;7.80;99.90;;;;;;5122025;27;19934;-70
2022/01/25 11:44:53;;;;;;;;;;;7.80;99.90;;;;;;5120643;27;19912;-70
2022/01/25 11:47:20;;;;;;;;;;;7.80;99.90;;;;;;5129058;27;19918;-72
2022/01/25 11:49:53;;;;;;;;;;;7.90;99.90;;;;;;5128492;27;19911;-71
2022/01/25 11:52:19;;;;;;;;;;;8.00;99.90;;;;;;5131385;27;19986;-71
2022/01/25 11:54:45;;;;;;;;;;;8.10;99.90;;;;;;5123004;27;20029;-71
2022/01/25 11:57:12;;;;;;;;;;;8.00;99.90;;;;;;5124330;27;19935;-69
2022/01/25 11:59:38;;;;;;;;;;;8.00;99.90;;;;;;5124695;27;19911;-69
2022/01/25 12:02:03;;;;;;;;;;;8.00;99.90;;;;;;5129622;27;19911;-69
2022/01/25 12:04:29;;;;;;;;;;;8.00;99.90;;;;;;5119127;27;19923;-69
2022/01/25 12:07:11;;;;;;;;;;;7.90;99.90;;;;;;5124442;27;19911;-67
2022/01/25 12:09:44;;;;;;;;;;;7.90;99.90;;;;;;5122295;27;20002;-69
2022/01/25 12:12:11;;;;;;;;;;;7.90;99.90;;;;;;5125607;27;19987;-70
2022/01/25 12:14:40;;;;;;;;;;;8.10;99.90;;;;;;5128211;27;20276;-68
2022/01/25 12:17:06;;;;;;;;;;;8.10;99.90;;;;;;5128253;27;19998;-70
2022/01/25 12:19:34;;;;;;;;;;;8.10;99.90;;;;;;5125995;27;20030;-69
2022/01/25 12:22:00;;;;;;;;;;;8.20;99.90;;;;;;5128103;27;20320;-68
2022/01/25 12:24:39;;;;;;;;;;;8.10;99.90;;;;;;5124357;27;20006;-68
2022/01/25 12:27:29;;;;;;;;;;;8.10;99.90;;;;;;5120287;27;19911;-69
2022/01/25 12:29:57;;;;;;;;;;;8.10;99.90;;;;;;5125966;28;19941;-69
2022/01/25 12:32:25;;;;;;;;;;;8.10;99.90;;;;;;5129934;28;20365;-69
2022/01/25 12:35:03;;;;;;;;;;;8.10;99.90;;;;;;5127268;28;19919;-70
2022/01/25 12:37:44;;;;;;;;;;;8.10;99.90;;;;;;5119737;28;19919;-70
2022/01/25 12:40:25;;;;;;;;;;;8.00;99.90;;;;;;5125336;28;20285;-68
2022/01/25 12:43:02;;;;;;;;;;;7.90;99.90;;;;;;5124673;28;20007;-69
2022/01/25 12:45:30;;;;;;;;;;;7.90;99.90;;;;;;5126091;27;19938;-70
2022/01/25 12:47:57;;;;;;;;;;;7.80;99.90;;;;;;5124155;28;20655;-71
2022/01/25 12:50:23;;;;;;;;;;;7.80;99.90;;;;;;5128460;28;19922;-71
2022/01/25 12:52:49;;;;;;;;;;;7.80;99.90;;;;;;5125127;27;19912;-70
2022/01/25 12:55:15;;;;;;;;;;;7.80;99.90;;;;;;5124242;28;20406;-68
2022/01/25 12:57:48;;;;;;;;;;;7.90;99.90;;;;;;5129465;28;19926;-69
2022/01/25 13:00:14;;;;;;;;;;;7.80;99.90;;;;;;5123753;27;20273;-68
2022/01/25 13:02:40;;;;;;;;;;;7.90;99.90;;;;;;5127644;27;19920;-70
2022/01/25 13:05:15;;;;;;;;;;;7.80;99.90;;;;;;5126644;27;19915;-69
2022/01/25 13:07:40;;;;;;;;;;;7.90;99.90;;;;;;5120713;28;19991;-70
2022/01/25 13:10:09;;;;;;;;;;;7.90;99.90;;;;;;5128198;28;19957;-68
2022/01/25 13:12:37;;;;;;;;;;;7.80;99.90;;;;;;5126776;28;19907;-70
2022/01/25 13:17:49;;;;;;;;;;;7.90;99.90;;;;;;5113840;27;19939;-71
2022/01/25 13:20:20;;;;;;;;;;;7.90;99.90;;;;;;5127973;27;19908;-69
2022/01/25 13:22:46;;;;;;;;;;;7.90;99.90;;;;;;5124848;27;19945;-71
2022/01/25 13:25:26;;;;;;;;;;;7.90;99.90;;;;;;5126124;27;20402;-69
2022/01/25 13:27:55;;;;;;;;;;;7.90;99.90;;;;;;5124355;27;20379;-71
2022/01/25 13:30:41;;;;;;;;;;;7.90;99.90;;;;;;5123012;27;19919;-70
2022/01/25 13:33:08;;;;;;;;;;;7.90;99.90;;;;;;5123518;27;19908;-70
2022/01/25 13:35:36;;;;;;;;;;;7.90;99.90;;;;;;5123818;27;20106;-69
2022/01/25 13:38:10;;;;;;;;;;;7.90;99.90;;;;;;5118476;27;19912;-69
2022/01/25 13:41:01;;;;;;;;;;;7.80;99.90;;;;;;5120788;27;19912;-71
2022/01/25 13:45:50;;;;;;;;;;;7.80;99.90;;;;;;5124172;27;19914;-70
2022/01/25 13:48:15;;;;;;;;;;;7.80;99.90;;;;;;5125469;27;20024;-70
2022/01/25 13:50:42;;;;;;;;;;;7.80;99.90;;;;;;5123345;27;19915;-71
2022/01/25 13:53:08;;;;;;;;;;;7.80;99.90;;;;;;5126101;27;19907;-70
2022/01/25 13:55:35;;;;;;;;;;;7.70;99.90;;;;;;5124692;27;19992;-70
2022/01/25 13:58:01;;;;;;;;;;;7.60;99.90;;;;;;5123611;27;19964;-70
2022/01/25 14:00:26;;;;;;;;;;;7.70;99.90;;;;;;5123917;27;19908;-70
2022/01/25 14:02:55;;;;;;;;;;;7.70;99.90;;;;;;5122633;27;19915;-69
2022/01/25 14:05:21;;;;;;;;;;;7.60;99.90;;;;;;5126132;27;19923;-70
2022/01/25 14:07:52;;;;;;;;;;;7.60;99.90;;;;;;5124868;27;19912;-71
2022/01/25 14:10:22;;;;;;;;;;;7.70;99.90;;;;;;5126972;27;19907;-70
2022/01/25 14:23:49;;;;;;;;;;;7.50;99.90;;;;;;5117996;27;19988;-69
2022/01/25 14:26:15;;;;;;;;;;;7.60;99.90;;;;;;5118450;27;20289;-71
2022/01/25 14:28:43;;;;;;;;;;;7.50;99.90;;;;;;5126244;27;20282;-70
2022/01/25 14:31:16;;;;;;;;;;;7.50;99.90;;;;;;5126461;27;19951;-70
2022/01/25 14:33:48;;;;;;;;;;;7.40;99.90;;;;;;5124668;27;20641;-67
2022/01/25 14:36:15;;;;;;;;;;;7.50;99.90;;;;;;5128816;27;20022;-68
2022/01/25 14:38:43;;;;;;;;;;;7.40;99.90;;;;;;5127764;27;19956;-69
2022/01/25 14:41:08;;;;;;;;;;;7.40;99.90;;;;;;5123476;27;19911;-69
2022/01/25 14:43:57;;;;;;;;;;;7.40;99.90;;;;;;5125332;27;19919;-70
2022/01/25 14:46:24;;;;;;;;;;;7.50;99.90;;;;;;5118191;27;19922;-70
2022/01/25 14:49:13;;;;;;;;;;;7.50;99.90;;;;;;5114987;27;19998;-69
2022/01/25 14:51:42;;;;;;;;;;;7.40;99.90;;;;;;5117741;27;20284;-69
2022/01/25 14:54:09;;;;;;;;;;;7.30;99.90;;;;;;5133183;27;20280;-70
2022/01/25 14:56:36;;;;;;;;;;;7.30;99.90;;;;;;5121240;27;19911;-69
2022/01/25 15:02:10;;;;;;;;;;;7.40;99.90;;;;;;5114596;27;19926;-68
2022/01/25 15:04:37;;;;;;;;;;;7.40;99.90;;;;;;5125989;27;19994;-69
2022/01/25 15:07:11;;;;;;;;;;;7.50;99.90;;;;;;5116248;27;19912;-69
2022/01/25 15:09:47;;;;;;;;;;;7.40;99.90;;;;;;5120240;27;19958;-71
2022/01/25 15:12:12;;;;;;;;;;;7.30;99.90;;;;;;5126783;27;19911;-68
2022/01/25 15:14:50;;;;;;;;;;;7.40;99.90;;;;;;5126333;27;19912;-69
2022/01/25 15:17:16;;;;;;;;;;;7.30;99.90;;;;;;5115284;27;20262;-69
2022/01/25 15:19:42;;;;;;;;;;;7.20;99.90;;;;;;5124216;27;19941;-68
2022/01/25 15:22:08;;;;;;;;;;;7.20;99.90;;;;;;5129171;27;19918;-68
2022/01/25 15:24:34;;;;;;;;;;;7.20;99.90;;;;;;5129797;27;20372;-68
2022/01/25 15:27:06;;;;;;;;;;;7.20;99.90;;;;;;5132549;27;19922;-69
2022/01/25 15:29:31;;;;;;;;;;;7.10;99.90;;;;;;5125716;27;20006;-69
2022/01/25 15:31:58;;;;;;;;;;;7.20;99.90;;;;;;5127976;27;20021;-66
2022/01/25 15:34:25;;;;;;;;;;;7.10;99.90;;;;;;5122331;27;19919;-70
2022/01/25 15:36:51;;;;;;;;;;;7.20;99.90;;;;;;5125986;27;20357;-69
2022/01/25 15:39:17;;;;;;;;;;;7.10;99.90;;;;;;5115452;27;19912;-69
2022/01/25 15:41:46;;;;;;;;;;;7.20;99.90;;;;;;5123707;27;19952;-68
2022/01/25 15:44:11;;;;;;;;;;;7.10;99.90;;;;;;5119709;27;19922;-70
2022/01/25 15:49:18;;;;;;;;;;;7.00;99.90;;;;;;5129865;27;19907;-68
2022/01/25 15:51:43;;;;;;;;;;;7.00;99.90;;;;;;5127868;27;20415;-70
2022/01/25 15:54:09;;;;;;;;;;;7.00;99.90;;;;;;5128851;27;19921;-69
2022/01/25 15:56:35;;;;;;;;;;;6.90;99.90;;;;;;5132775;27;19999;-70
2022/01/25 15:59:00;;;;;;;;;;;6.80;99.90;;;;;;5131642;27;20284;-69
2022/01/25 16:01:26;;;;;;;;;;;6.70;99.90;;;;;;5126383;27;19919;-69
2022/01/25 16:03:52;;;;;;;;;;;6.60;99.90;;;;;;5128439;27;19907;-71
2022/01/25 16:06:19;;;;;;;;;;;6.80;99.90;;;;;;5130619;27;20018;-70
2022/01/25 16:08:45;;;;;;;;;;;6.80;99.90;;;;;;5128257;27;20353;-69
2022/01/25 16:11:14;;;;;;;;;;;6.80;99.90;;;;;;5131601;27;19915;-70
2022/01/25 16:13:44;;;;;;;;;;;6.80;99.90;;;;;;5126932;27;20034;-68
2022/01/25 16:16:11;;;;;;;;;;;6.90;99.90;;;;;;5125148;27;20361;-69
2022/01/25 16:18:38;;;;;;;;;;;6.90;99.90;;;;;;5131193;27;19937;-70
2022/01/25 16:21:04;;;;;;;;;;;6.90;99.90;;;;;;5122075;27;20324;-70
2022/01/25 16:23:29;;;;;;;;;;;6.90;99.90;;;;;;5128321;27;19915;-70
2022/01/25 16:25:55;;;;;;;;;;;7.00;99.90;;;;;;5129564;27;19915;-69
2022/01/25 16:28:21;;;;;;;;;;;7.10;99.90;;;;;;5123147;27;20478;-69
2022/01/25 16:30:51;;;;;;;;;;;7.20;99.90;;;;;;5130581;27;20451;-70
2022/01/25 16:33:17;;;;;;;;;;;7.20;99.90;;;;;;5121507;28;19911;-69
2022/01/25 16:35:42;;;;;;;;;;;7.20;99.90;;;;;;5129784;28;19977;-69
2022/01/25 16:38:08;;;;;;;;;;;7.20;99.90;;;;;;5129576;28;19933;-69
2022/01/25 16:40:35;;;;;;;;;;;7.30;99.90;;;;;;5128776;28;20246;-69
2022/01/25 16:43:01;;;;;;;;;;;7.20;99.90;;;;;;5125939;28;19911;-70
2022/01/25 16:45:32;;;;;;;;;;;7.20;99.90;;;;;;5129588;27;20472;-69